createdAt,value
2022-10-10T00:05:11.155Z,472.05725
2022-10-10T00:20:13.442Z,399.35849
2022-10-10T00:35:15.795Z,298.54956
2022-10-10T00:50:18.100Z,187.07812
2022-10-10T01:05:20.422Z,85.29987
2022-10-10T01:20:22.710Z,19.38634
2022-10-10T01:35:24.919Z,1.93863
2022-10-10T01:50:27.234Z,0
2022-10-10T02:05:29.503Z,0
2022-10-10T02:20:31.803Z,0
2022-10-10T02:35:34.075Z,0
2022-10-10T02:50:36.460Z,0
2022-10-10T03:05:38.815Z,0
2022-10-10T03:20:41.123Z,0
2022-10-10T03:35:43.460Z,0
2022-10-10T03:50:45.826Z,0
2022-10-10T04:05:48.162Z,0
2022-10-10T04:20:50.402Z,0
2022-10-10T04:35:52.726Z,0
2022-10-10T04:50:54.992Z,0
2022-10-10T05:05:57.337Z,0
2022-10-10T05:21:03.491Z,0
2022-10-10T05:36:06.173Z,0
2022-10-10T05:51:08.607Z,0
2022-10-10T06:06:10.893Z,0
2022-10-10T06:21:13.218Z,0
2022-10-10T06:36:15.529Z,0
2022-10-10T06:51:17.910Z,0
2022-10-10T07:06:20.240Z,0
2022-10-10T07:21:22.616Z,0
2022-10-10T07:36:24.954Z,0
2022-10-10T07:51:27.255Z,0
2022-10-10T08:06:29.749Z,0
2022-10-10T08:21:32.069Z,0
2022-10-10T08:36:34.554Z,0
2022-10-10T08:51:36.847Z,0
2022-10-10T09:06:39.130Z,0
2022-10-10T09:21:41.451Z,0
2022-10-10T09:36:43.696Z,0
2022-10-10T09:51:45.993Z,0
2022-10-10T10:06:48.242Z,0
2022-10-10T10:21:50.483Z,0
2022-10-10T10:36:52.768Z,0
2022-10-10T10:51:55.108Z,0
2022-10-10T11:07:17.399Z,0
2022-10-10T11:22:20.933Z,0
2022-10-10T11:37:23.153Z,0
2022-10-10T11:52:34.424Z,0
2022-10-10T12:07:37.365Z,0
2022-10-10T12:22:39.687Z,0
2022-10-10T12:37:42.196Z,0
2022-10-10T12:52:44.443Z,0
2022-10-10T13:07:46.823Z,0
2022-10-10T13:22:49.071Z,0
2022-10-10T13:37:51.363Z,0.96932
2022-10-10T13:52:53.761Z,12.60112
2022-10-10T14:07:56.042Z,44.58857
2022-10-10T14:22:58.356Z,149.27478
2022-10-10T14:38:00.641Z,301.45749
2022-10-10T14:53:02.914Z,260.74619
2022-10-10T15:08:05.198Z,210.34174
2022-10-10T15:23:07.691Z,295.6416
2022-10-10T15:38:10.015Z,540.87872
2022-10-10T15:53:12.306Z,812.28741
2022-10-10T16:08:14.574Z,1426.83423
2022-10-10T16:23:16.857Z,3348.98926
2022-10-10T16:38:19.166Z,6741.59766
2022-10-10T16:53:21.461Z,6220.10547
2022-10-10T17:08:23.809Z,3036.86938
2022-10-10T17:23:26.186Z,2689.854
2022-10-10T17:38:39.726Z,5588.11084
2022-10-10T17:53:42.772Z,3165.78833
2022-10-10T18:08:45.134Z,1406.47852
2022-10-10T18:23:47.473Z,1204.86072
2022-10-10T18:38:49.786Z,1636.20667
2022-10-10T18:53:52.080Z,1664.31677
2022-10-10T19:08:54.342Z,1438.46606
2022-10-10T19:23:56.588Z,2541.54834
2022-10-10T19:38:58.888Z,2198.4104
2022-10-10T19:54:01.207Z,2382.58057
2022-10-10T20:09:06.074Z,2229.42847
2022-10-10T20:24:12.196Z,5263.38965
2022-10-10T20:39:14.549Z,4419.11475
2022-10-10T20:54:16.883Z,3972.26001
2022-10-10T21:09:19.194Z,4761.28369
2022-10-10T21:24:21.486Z,3710.54443
2022-10-10T21:39:23.790Z,1630.39075
2022-10-10T21:54:26.111Z,3699.88184
2022-10-10T22:09:28.406Z,2455.2793
2022-10-10T22:24:30.718Z,2780.96973
2022-10-10T22:39:33.037Z,2378.70312
2022-10-10T22:54:35.276Z,1316.33215
2022-10-10T23:09:37.586Z,1539.2749
2022-10-10T23:24:39.917Z,1178.68909
2022-10-10T23:39:42.246Z,751.22046
2022-10-10T23:54:44.585Z,600.97638
